Time;durP1;ratioP1;P1;durP2;ratioP2;P2;SDS_P1;SDS_P2;PMS_P1;PMS_P2;Temp;Humidity;BMP_temperature;BMP_pressure;BME280_temperature;BME280_humidity;BME280_pressure;Samples;Min_cycle;Max_cycle;Signal;HPM_P1;HPM_P2
2023/12/11 00:01:16;;;;;;;1.73;0.95;;;;;;;8.41;88.66;97034.88;5095330;28;20191;-74
2023/12/11 00:03:43;;;;;;;1.35;0.85;;;;;;;8.40;88.60;97041.31;5092729;28;20544;-74
2023/12/11 00:06:10;;;;;;;1.27;0.80;;;;;;;8.47;88.40;97042.09;5076220;28;20220;-73
2023/12/11 00:08:43;;;;;;;1.67;0.70;;;;;;;8.39;88.63;97028.88;5073272;28;20199;-74
2023/12/11 00:11:12;;;;;;;1.17;0.70;;;;;;;8.53;88.18;97041.25;5075590;28;20204;-74
2023/12/11 00:13:39;;;;;;;1.08;0.90;;;;;;;8.49;88.06;97042.72;5075620;28;20241;-74
2023/12/11 00:16:07;;;;;;;1.00;0.70;;;;;;;8.27;87.90;96999.00;5075536;28;20223;-74
2023/12/11 00:18:36;;;;;;;1.05;0.80;;;;;;;8.52;87.82;97034.19;5091888;28;20224;-75
2023/12/11 00:21:02;;;;;;;1.60;0.80;;;;;;;8.62;87.10;97015.69;5097322;28;20203;-75
2023/12/11 00:23:29;;;;;;;1.17;0.82;;;;;;;8.74;86.96;97024.78;5080056;28;20200;-75
2023/12/11 00:25:59;;;;;;;1.60;0.70;;;;;;;8.62;86.97;97031.88;5062319;28;20212;-74
2023/12/11 00:28:27;;;;;;;1.30;0.80;;;;;;;8.59;87.03;97044.97;5095495;28;20195;-75
2023/12/11 00:30:54;;;;;;;1.73;0.95;;;;;;;8.63;86.58;97047.03;5096921;28;20217;-74
2023/12/11 00:33:21;;;;;;;1.05;0.90;;;;;;;8.68;86.69;97051.78;5081621;28;20203;-74
2023/12/11 00:35:50;;;;;;;0.80;0.70;;;;;;;8.60;87.06;97033.13;5098096;28;20203;-74
2023/12/11 00:38:17;;;;;;;1.00;0.60;;;;;;;8.57;87.62;97052.44;5079485;28;20217;-74
2023/12/11 00:40:45;;;;;;;1.85;0.90;;;;;;;8.71;86.34;97054.03;5081185;28;20660;-74
2023/12/11 00:43:13;;;;;;;1.48;0.73;;;;;;;8.66;86.70;97054.69;5076687;28;20203;-75
2023/12/11 00:45:40;;;;;;;1.45;0.80;;;;;;;8.80;86.63;97057.31;5078549;28;20199;-76
2023/12/11 00:48:07;;;;;;;0.70;0.60;;;;;;;8.74;87.20;97051.75;5079791;28;20196;-74
2023/12/11 00:50:35;;;;;;;2.45;1.10;;;;;;;8.86;86.70;97056.44;5076853;28;20673;-75
2023/12/11 00:53:01;;;;;;;0.70;0.70;;;;;;;8.73;87.34;97068.16;5083281;28;20547;-75
2023/12/11 00:55:28;;;;;;;1.25;0.70;;;;;;;8.79;87.43;97077.22;5074800;28;20206;-74
2023/12/11 00:57:55;;;;;;;1.50;0.70;;;;;;;8.85;86.73;97070.97;5062303;28;20281;-75
2023/12/11 01:00:23;;;;;;;1.55;0.90;;;;;;;8.82;87.71;97077.63;5077675;28;20257;-74
2023/12/11 01:02:49;;;;;;;0.90;0.80;;;;;;;8.91;86.28;97075.50;5113909;27;20235;-74
2023/12/11 01:05:16;;;;;;;2.10;0.77;;;;;;;9.00;86.34;97072.38;5078701;28;20264;-75
2023/12/11 01:07:43;;;;;;;1.13;0.70;;;;;;;9.05;86.11;97066.31;5078253;28;20252;-74
2023/12/11 01:10:10;;;;;;;2.25;0.70;;;;;;;9.03;86.12;97057.63;5112296;27;20279;-74
2023/12/11 01:12:37;;;;;;;2.67;0.70;;;;;;;9.00;86.60;97068.84;5097107;28;20604;-74
2023/12/11 01:15:04;;;;;;;1.63;0.98;;;;;;;8.93;86.65;97065.34;5094892;28;20706;-74
2023/12/11 01:17:32;;;;;;;1.08;0.90;;;;;;;8.97;86.58;97059.28;5080021;28;20233;-74
2023/12/11 01:20:00;;;;;;;4.05;1.20;;;;;;;9.11;85.96;97070.81;5095026;28;20203;-74
2023/12/11 01:22:26;;;;;;;1.08;0.60;;;;;;;9.00;85.92;97060.75;5077242;28;20196;-74
2023/12/11 01:24:56;;;;;;;0.80;0.80;;;;;;;9.07;85.84;97069.63;5094110;28;20224;-74
2023/12/11 01:27:22;;;;;;;1.00;0.82;;;;;;;9.01;86.40;97054.31;5096604;28;20196;-74
2023/12/11 01:29:49;;;;;;;1.95;0.70;;;;;;;8.95;86.10;97034.41;5081651;28;20261;-74
2023/12/11 01:32:16;;;;;;;1.13;0.60;;;;;;;9.10;86.29;97058.38;5075443;28;20204;-74
2023/12/11 01:34:44;;;;;;;0.80;0.80;;;;;;;9.22;86.02;97066.63;5058025;28;20688;-75
2023/12/11 01:37:11;;;;;;;1.65;0.80;;;;;;;9.36;85.25;97065.50;5077801;28;20607;-74
2023/12/11 01:39:42;;;;;;;1.02;0.70;;;;;;;9.27;85.60;97064.94;5076038;28;20308;-74
2023/12/11 01:42:08;;;;;;;1.15;1.05;;;;;;;9.26;85.66;97070.53;5076870;28;20211;-75
2023/12/11 01:44:36;;;;;;;1.48;0.60;;;;;;;9.21;86.09;97082.00;5076660;28;20223;-74
2023/12/11 01:47:03;;;;;;;0.70;0.60;;;;;;;9.27;85.81;97080.28;5077078;28;20291;-74
2023/12/11 01:49:30;;;;;;;1.88;0.70;;;;;;;9.29;85.53;97079.03;5075596;28;20208;-74
2023/12/11 01:51:58;;;;;;;1.15;0.68;;;;;;;9.22;85.92;97078.25;5058654;28;20230;-74
2023/12/11 01:54:26;;;;;;;1.20;0.70;;;;;;;9.32;85.79;97081.31;5069296;28;20212;-74
2023/12/11 01:56:52;;;;;;;1.40;0.70;;;;;;;9.44;85.35;97082.25;5094419;27;20220;-75
2023/12/11 01:59:19;;;;;;;0.90;0.70;;;;;;;9.41;85.25;97081.88;5096054;28;20337;-74
2023/12/11 02:01:46;;;;;;;0.80;0.60;;;;;;;9.39;85.55;97081.25;5078297;28;20783;-74
2023/12/11 02:04:13;;;;;;;1.85;0.60;;;;;;;9.53;84.73;97073.88;5079089;28;20263;-74
2023/12/11 02:06:40;;;;;;;0.80;0.80;;;;;;;9.54;84.42;97081.75;5075332;28;20231;-75
2023/12/11 02:09:08;;;;;;;0.70;0.60;;;;;;;9.58;84.20;97093.78;5076725;28;20195;-75
2023/12/11 02:11:35;;;;;;;0.80;0.73;;;;;;;9.53;84.29;97069.31;5074516;28;20210;-75
2023/12/11 02:14:01;;;;;;;0.90;0.60;;;;;;;9.49;84.46;97064.56;5077763;28;20247;-74
2023/12/11 02:16:28;;;;;;;1.30;0.50;;;;;;;9.56;84.16;97059.94;5079533;28;20252;-74
2023/12/11 02:18:56;;;;;;;0.68;0.60;;;;;;;9.51;84.36;97055.19;5059998;28;20230;-74
2023/12/11 02:21:23;;;;;;;1.27;0.68;;;;;;;9.70;83.78;97058.78;5094160;28;20256;-74
2023/12/11 02:23:54;;;;;;;0.70;0.70;;;;;;;9.62;84.01;97061.75;5096302;28;20203;-74
2023/12/11 02:26:23;;;;;;;0.82;0.60;;;;;;;9.67;83.76;97054.66;5074035;28;20207;-74
2023/12/11 02:28:49;;;;;;;1.65;0.70;;;;;;;9.89;81.92;97059.66;5072628;28;20239;-74
2023/12/11 02:31:17;;;;;;;0.75;0.60;;;;;;;9.90;82.33;97058.59;5075852;28;20245;-74
2023/12/11 02:33:43;;;;;;;0.70;0.60;;;;;;;10.00;81.81;97059.75;5043952;28;20192;-74
2023/12/11 02:36:10;;;;;;;0.80;0.60;;;;;;;9.99;81.08;97066.22;5076550;28;20207;-74
2023/12/11 02:38:37;;;;;;;1.65;0.70;;;;;;;9.98;81.42;97064.56;5061133;28;20221;-74
2023/12/11 02:41:04;;;;;;;0.85;0.77;;;;;;;9.98;81.73;97061.88;5076452;28;20199;-74
2023/12/11 02:43:33;;;;;;;0.90;0.70;;;;;;;9.78;82.19;97036.88;5061037;28;20195;-74
2023/12/11 02:45:59;;;;;;;0.93;0.60;;;;;;;9.81;82.63;97054.53;5068083;28;20644;-74
2023/12/11 02:48:26;;;;;;;0.70;0.60;;;;;;;9.90;82.36;97070.25;5080724;28;20283;-74
2023/12/11 02:50:53;;;;;;;0.88;0.60;;;;;;;9.96;82.05;97063.97;5099506;28;20207;-74
2023/12/11 02:53:19;;;;;;;1.00;0.63;;;;;;;9.96;82.06;97069.38;5082046;28;20597;-74
2023/12/11 02:55:46;;;;;;;0.98;0.70;;;;;;;9.90;81.77;97054.03;5097184;28;20228;-74
2023/12/11 02:58:13;;;;;;;0.80;0.60;;;;;;;9.69;82.18;97074.19;5099919;28;20223;-74
2023/12/11 03:00:41;;;;;;;1.40;0.60;;;;;;;9.83;81.72;97066.78;5102369;28;20261;-74
2023/12/11 03:03:09;;;;;;;0.90;0.60;;;;;;;10.01;80.62;97061.41;5093896;28;20268;-74
2023/12/11 03:05:36;;;;;;;0.70;0.50;;;;;;;10.24;79.51;97060.78;5084076;28;20199;-74
2023/12/11 03:08:03;;;;;;;0.85;0.70;;;;;;;10.31;78.82;97058.03;5085389;28;20257;-74
2023/12/11 03:10:30;;;;;;;0.90;0.68;;;;;;;10.22;79.57;97048.53;5082279;28;20657;-74
2023/12/11 03:12:56;;;;;;;1.80;0.90;;;;;;;10.23;79.59;97042.09;5083335;28;20695;-74
2023/12/11 03:15:24;;;;;;;0.75;0.60;;;;;;;10.20;80.35;97058.75;5060856;28;20215;-74
2023/12/11 03:17:52;;;;;;;0.98;0.73;;;;;;;10.36;79.88;97058.19;5081609;28;20204;-74
2023/12/11 03:20:19;;;;;;;0.80;0.70;;;;;;;10.24;80.96;97054.56;5115594;27;20299;-74
2023/12/11 03:22:46;;;;;;;1.95;0.75;;;;;;;9.96;82.68;97063.97;5081830;28;20210;-74
2023/12/11 03:25:13;;;;;;;0.85;0.60;;;;;;;9.99;83.71;97063.50;5088357;28;20199;-75
2023/12/11 03:27:40;;;;;;;0.90;0.70;;;;;;;9.95;85.05;97048.78;5087655;28;20199;-75
2023/12/11 03:30:08;;;;;;;0.90;0.60;;;;;;;9.68;86.69;97045.50;5105671;28;20721;-75
2023/12/11 03:32:35;;;;;;;0.75;0.70;;;;;;;9.65;86.88;97051.34;5103245;28;20241;-76
2023/12/11 03:35:03;;;;;;;0.95;0.60;;;;;;;9.50;87.69;97048.13;5083264;28;20249;-75
2023/12/11 03:37:30;;;;;;;1.20;0.73;;;;;;;9.39;89.07;97051.56;5100045;28;20249;-75
2023/12/11 03:39:56;;;;;;;1.45;0.70;;;;;;;9.30;90.65;97063.66;5068310;28;20233;-75
2023/12/11 03:42:23;;;;;;;0.90;0.70;;;;;;;9.31;90.70;97051.81;5085739;28;20535;-75
2023/12/11 03:44:50;;;;;;;0.80;0.80;;;;;;;9.13;92.06;97060.66;5086393;28;20237;-76
2023/12/11 03:47:17;;;;;;;1.45;0.80;;;;;;;8.98;93.95;97060.13;5087324;28;20204;-75
2023/12/11 03:49:44;;;;;;;1.15;0.68;;;;;;;8.84;95.45;97047.75;5072890;28;20687;-75
2023/12/11 03:52:12;;;;;;;1.52;0.60;;;;;;;8.85;96.11;97044.00;5084743;28;20744;-75
2023/12/11 03:54:39;;;;;;;0.93;0.60;;;;;;;8.81;96.31;97032.81;5100769;28;20201;-75
2023/12/11 03:57:06;;;;;;;0.73;0.50;;;;;;;8.75;96.78;97026.44;5089556;28;20229;-75
2023/12/11 03:59:34;;;;;;;1.33;0.52;;;;;;;8.86;96.76;97018.66;5086162;28;20300;-76
2023/12/11 04:02:00;;;;;;;1.15;0.60;;;;;;;8.87;96.02;97009.53;5085695;28;20195;-75
2023/12/11 04:04:28;;;;;;;0.60;0.60;;;;;;;8.75;96.94;97017.50;5070491;28;20203;-76
2023/12/11 04:06:54;;;;;;;0.60;0.60;;;;;;;8.82;96.88;97001.25;5083793;28;20283;-75
2023/12/11 04:09:22;;;;;;;1.42;0.75;;;;;;;8.73;97.12;96988.06;5073578;28;20199;-75
2023/12/11 04:11:49;;;;;;;0.60;0.60;;;;;;;8.82;96.36;96990.47;5084550;28;20223;-75
2023/12/11 04:14:16;;;;;;;0.70;0.70;;;;;;;8.79;96.22;96986.34;5085257;28;20203;-75
2023/12/11 04:16:43;;;;;;;1.30;0.70;;;;;;;8.72;96.60;96980.16;5086979;28;20195;-75
2023/12/11 04:19:11;;;;;;;0.93;0.82;;;;;;;8.68;96.59;96985.16;5086716;28;20215;-75
2023/12/11 04:21:38;;;;;;;0.70;0.60;;;;;;;8.58;96.77;96984.81;5101964;28;20253;-75
2023/12/11 04:24:05;;;;;;;0.75;0.75;;;;;;;8.55;96.56;97006.81;5087187;28;20208;-75
2023/12/11 04:26:33;;;;;;;1.35;0.60;;;;;;;8.47;96.67;97008.91;5121426;27;20325;-75
2023/12/11 04:29:00;;;;;;;0.60;0.50;;;;;;;8.57;95.77;96993.09;5121126;27;20211;-75
2023/12/11 04:31:26;;;;;;;0.60;0.60;;;;;;;8.53;95.82;96987.31;5086158;28;20236;-75
2023/12/11 04:33:53;;;;;;;1.13;0.70;;;;;;;8.55;95.96;97005.97;5068094;28;20260;-76
2023/12/11 04:36:20;;;;;;;1.00;0.90;;;;;;;8.62;95.56;97013.00;5084839;28;20874;-75
2023/12/11 04:38:47;;;;;;;1.70;0.65;;;;;;;8.62;95.47;97007.59;5086628;28;20262;-75
2023/12/11 04:41:13;;;;;;;0.88;0.60;;;;;;;8.60;95.51;97014.25;5087944;28;20261;-75
2023/12/11 04:43:43;;;;;;;0.80;0.60;;;;;;;8.62;95.28;97015.69;5083719;28;20257;-75
2023/12/11 04:46:10;;;;;;;0.80;0.60;;;;;;;8.74;94.55;97022.06;5115482;27;20684;-73
2023/12/11 04:48:37;;;;;;;0.80;0.50;;;;;;;8.84;94.19;97012.66;5082836;28;20192;-74
2023/12/11 04:51:05;;;;;;;0.80;0.60;;;;;;;8.85;93.88;97020.53;5098236;28;20204;-74
2023/12/11 04:53:31;;;;;;;1.35;0.60;;;;;;;8.93;92.94;97020.28;5083211;28;20196;-74
2023/12/11 04:55:58;;;;;;;0.60;0.60;;;;;;;9.05;91.64;97001.53;5068788;28;20195;-74
2023/12/11 04:58:25;;;;;;;1.15;0.60;;;;;;;9.06;91.51;96992.41;5084703;28;20281;-74
2023/12/11 05:00:53;;;;;;;0.82;0.50;;;;;;;9.06;90.91;96993.22;5117771;27;20627;-76
2023/12/11 05:03:20;;;;;;;1.35;0.50;;;;;;;9.06;90.77;97008.59;5083357;28;20208;-76
2023/12/11 05:05:47;;;;;;;0.80;0.60;;;;;;;9.11;90.23;97000.66;5087764;28;20206;-75
2023/12/11 05:08:14;;;;;;;0.90;0.70;;;;;;;9.14;89.94;97004.78;5067624;28;20280;-76
2023/12/11 05:10:40;;;;;;;0.82;0.60;;;;;;;9.21;89.52;96994.78;5079440;28;20645;-77
2023/12/11 05:13:07;;;;;;;0.75;0.60;;;;;;;9.23;88.83;96988.09;5093474;28;20258;-78
2023/12/11 05:15:34;;;;;;;1.17;0.60;;;;;;;9.34;87.68;96976.59;5101528;28;20214;-77
2023/12/11 05:18:03;;;;;;;1.15;0.68;;;;;;;9.47;86.58;96985.63;5096932;28;20214;-77
2023/12/11 05:20:29;;;;;;;1.67;0.80;;;;;;;9.41;86.77;96988.19;5093121;28;20207;-77
2023/12/11 05:22:56;;;;;;;0.85;0.70;;;;;;;9.47;85.33;97008.06;5084682;28;20223;-77
2023/12/11 05:25:23;;;;;;;0.70;0.60;;;;;;;9.54;84.55;97005.31;5095638;28;20237;-77
2023/12/11 05:27:49;;;;;;;1.55;0.70;;;;;;;9.60;84.01;96983.66;5127659;27;20200;-76
2023/12/11 05:30:17;;;;;;;0.73;0.70;;;;;;;9.60;83.15;96972.00;5066360;28;20261;-76
2023/12/11 05:32:44;;;;;;;1.02;0.70;;;;;;;9.63;83.12;96974.28;5077249;28;20195;-74
2023/12/11 05:35:12;;;;;;;1.65;0.70;;;;;;;9.66;82.30;96971.97;5083474;28;20561;-75
2023/12/11 05:37:39;;;;;;;0.80;0.60;;;;;;;9.64;82.38;96951.63;5101436;28;20245;-72
2023/12/11 05:40:07;;;;;;;0.80;0.63;;;;;;;9.67;81.77;96956.56;5106731;27;20292;-74
2023/12/11 05:42:35;;;;;;;0.70;0.70;;;;;;;9.67;81.60;96948.47;5076061;28;20286;-71
2023/12/11 05:45:02;;;;;;;0.80;0.60;;;;;;;9.63;81.72;96941.84;5094294;28;20268;-71
2023/12/11 05:47:28;;;;;;;1.92;0.82;;;;;;;9.65;81.59;96926.25;5080515;28;20203;-71
2023/12/11 05:49:55;;;;;;;2.30;0.60;;;;;;;9.62;81.54;96927.53;5082552;28;20199;-71
2023/12/11 05:52:24;;;;;;;0.70;0.50;;;;;;;9.66;81.58;96930.59;5077000;28;20229;-71
2023/12/11 05:54:50;;;;;;;0.80;0.70;;;;;;;9.65;81.42;96928.94;5061767;28;20191;-71
2023/12/11 05:57:17;;;;;;;1.83;0.80;;;;;;;9.71;81.52;96974.00;5063449;28;20222;-70
2023/12/11 05:59:47;;;;;;;1.05;0.70;;;;;;;9.66;81.38;96971.13;5097871;28;20554;-71
2023/12/11 06:02:13;;;;;;;1.17;0.60;;;;;;;9.65;81.49;96966.78;5094199;28;20255;-71
2023/12/11 06:04:40;;;;;;;0.70;0.70;;;;;;;9.58;81.62;96966.00;5098582;28;20269;-73
2023/12/11 06:07:07;;;;;;;1.42;0.70;;;;;;;9.42;82.63;96979.00;5093913;28;20212;-73
2023/12/11 06:09:35;;;;;;;0.70;0.60;;;;;;;9.43;82.51;96961.75;5111165;27;20654;-72
2023/12/11 06:12:02;;;;;;;2.00;0.90;;;;;;;9.32;83.14;96962.50;5098719;28;20268;-69
2023/12/11 06:14:28;;;;;;;1.00;0.80;;;;;;;9.36;82.96;96965.59;5081811;28;20653;-71
2023/12/11 06:16:55;;;;;;;1.27;0.70;;;;;;;9.34;82.58;96952.31;5048731;28;20208;-71
2023/12/11 06:19:21;;;;;;;0.80;0.70;;;;;;;9.38;82.64;96958.94;5076295;28;20219;-72
2023/12/11 06:21:49;;;;;;;0.80;0.80;;;;;;;9.39;82.15;96971.38;5097801;28;20283;-72
2023/12/11 06:24:16;;;;;;;1.23;0.70;;;;;;;9.40;82.12;96973.03;5064248;28;20627;-71
2023/12/11 06:26:44;;;;;;;1.77;0.85;;;;;;;9.38;81.99;96980.53;5079417;28;21786;-73
2023/12/11 06:29:11;;;;;;;0.90;0.70;;;;;;;9.43;81.45;96960.94;5066804;28;20207;-74
2023/12/11 06:31:38;;;;;;;1.00;0.70;;;;;;;9.51;81.15;96974.16;5084313;28;20211;-74
2023/12/11 06:34:05;;;;;;;1.00;0.80;;;;;;;9.41;81.04;96972.00;5078037;28;20253;-74
2023/12/11 06:36:32;;;;;;;1.65;0.82;;;;;;;9.59;80.71;96962.25;5076371;28;20205;-74
2023/12/11 06:39:01;;;;;;;2.20;0.95;;;;;;;9.57;80.45;96958.94;5079003;28;20249;-74
2023/12/11 06:41:28;;;;;;;1.33;0.65;;;;;;;9.59;80.04;96943.34;5080641;28;20211;-74
2023/12/11 06:43:58;;;;;;;0.70;0.70;;;;;;;9.44;80.00;96933.72;5062092;28;20637;-74
2023/12/11 06:46:28;;;;;;;2.40;0.80;;;;;;;9.57;80.01;96934.63;5084224;28;20704;-74
2023/12/11 06:48:55;;;;;;;0.98;0.70;;;;;;;9.54;80.25;96940.47;5083333;28;20210;-73
2023/12/11 06:51:24;;;;;;;2.00;0.80;;;;;;;9.44;80.14;96949.09;5081715;28;20191;-73
2023/12/11 06:53:58;;;;;;;1.52;0.73;;;;;;;9.60;79.11;96937.72;5076126;28;20224;-74
2023/12/11 06:56:25;;;;;;;1.05;0.77;;;;;;;9.65;78.23;96945.16;5114206;27;20286;-73
2023/12/11 06:58:52;;;;;;;2.20;0.90;;;;;;;9.73;77.77;96950.28;5079682;28;20270;-74
2023/12/11 07:01:20;;;;;;;0.90;0.80;;;;;;;9.76;77.53;96947.09;5101616;28;20277;-73
2023/12/11 07:03:48;;;;;;;1.17;0.70;;;;;;;9.76;77.60;96947.94;5081191;28;20625;-73
2023/12/11 07:06:17;;;;;;;1.25;0.73;;;;;;;9.72;77.59;96943.22;5083054;28;20272;-74
2023/12/11 07:08:43;;;;;;;0.93;0.70;;;;;;;9.66;77.78;96944.13;5077243;28;20363;-73
2023/12/11 07:11:10;;;;;;;1.25;0.77;;;;;;;9.70;77.52;96939.91;5059454;28;20226;-73
2023/12/11 07:13:37;;;;;;;1.77;0.80;;;;;;;9.75;77.68;96937.34;5093420;28;20231;-73
2023/12/11 07:16:04;;;;;;;1.27;0.82;;;;;;;9.78;77.24;96926.09;5077088;28;20208;-73
2023/12/11 07:18:33;;;;;;;0.80;0.80;;;;;;;9.66;77.58;96915.22;5083999;28;20283;-74
2023/12/11 07:20:59;;;;;;;1.50;1.10;;;;;;;9.68;77.65;96915.00;5061934;28;20684;-74
2023/12/11 07:23:26;;;;;;;0.93;0.70;;;;;;;9.69;77.60;96920.19;5076584;28;20614;-74
2023/12/11 07:25:53;;;;;;;2.42;1.00;;;;;;;9.58;77.98;96925.50;5111530;27;20348;-74
2023/12/11 07:28:20;;;;;;;2.10;1.10;;;;;;;9.56;78.39;96917.59;5110492;27;20242;-74
2023/12/11 07:30:46;;;;;;;1.77;1.00;;;;;;;9.58;78.44;96922.78;5079245;28;20661;-74
2023/12/11 07:33:13;;;;;;;1.42;0.90;;;;;;;9.52;78.88;96927.19;5078505;28;20285;-73
2023/12/11 07:35:41;;;;;;;1.00;0.90;;;;;;;9.62;78.04;96922.13;5082225;28;20216;-74
2023/12/11 07:38:07;;;;;;;1.77;0.77;;;;;;;9.63;77.63;96928.34;5070845;28;20252;-74
2023/12/11 07:40:34;;;;;;;0.90;0.70;;;;;;;9.70;77.64;96923.72;5075624;28;20724;-74
2023/12/11 07:43:01;;;;;;;1.48;1.38;;;;;;;9.74;77.55;96906.00;5081809;28;20702;-74
2023/12/11 07:45:29;;;;;;;0.73;0.70;;;;;;;9.75;77.25;96919.25;5079165;28;20196;-74
2023/12/11 07:47:55;;;;;;;2.35;0.90;;;;;;;9.76;77.07;96902.00;5078598;28;20793;-74
2023/12/11 07:50:22;;;;;;;1.10;0.80;;;;;;;9.76;77.29;96901.16;5062458;28;20227;-74
2023/12/11 07:52:50;;;;;;;2.60;0.80;;;;;;;9.84;76.91;96898.19;5067182;28;20284;-74
2023/12/11 07:55:17;;;;;;;0.90;0.75;;;;;;;9.71;77.11;96888.38;5073186;28;20291;-74
2023/12/11 07:57:44;;;;;;;1.95;0.85;;;;;;;9.65;77.50;96888.44;5110578;28;20252;-74
2023/12/11 08:00:13;;;;;;;1.20;0.90;;;;;;;9.70;77.49;96896.69;5069486;28;20221;-74
2023/12/11 08:02:41;;;;;;;1.52;0.77;;;;;;;9.65;77.82;96902.78;5071258;28;20207;-74
2023/12/11 08:05:09;;;;;;;0.90;0.80;;;;;;;9.68;77.81;96920.41;5078998;28;20667;-75
2023/12/11 08:07:37;;;;;;;1.92;0.88;;;;;;;9.69;77.94;96927.47;5105786;28;20668;-78
2023/12/11 08:10:07;;;;;;;1.08;0.70;;;;;;;9.69;77.96;96931.00;5121079;28;20212;-76
2023/12/11 08:12:34;;;;;;;1.00;0.70;;;;;;;9.78;77.64;96951.25;5082281;28;20262;-76
2023/12/11 08:15:01;;;;;;;1.65;0.93;;;;;;;9.86;77.32;96947.41;5067920;28;20212;-75
2023/12/11 08:17:27;;;;;;;1.17;1.05;;;;;;;9.82;77.77;96950.78;5069386;28;20256;-75
2023/12/11 08:19:54;;;;;;;1.30;1.02;;;;;;;9.67;78.26;96940.38;5081363;28;20219;-76
2023/12/11 08:22:24;;;;;;;1.92;1.23;;;;;;;9.69;78.39;96939.09;5072902;28;20259;-76
2023/12/11 08:24:50;;;;;;;1.50;1.20;;;;;;;9.64;78.35;96941.63;5085680;28;20191;-76
2023/12/11 08:27:19;;;;;;;0.95;0.80;;;;;;;9.61;78.76;96954.75;5088016;28;20256;-75
2023/12/11 08:29:46;;;;;;;1.77;1.25;;;;;;;9.60;78.94;96934.19;5086735;28;20203;-75
2023/12/11 08:32:12;;;;;;;1.95;0.90;;;;;;;9.76;78.53;96928.19;5111664;28;20233;-76
2023/12/11 08:34:39;;;;;;;1.08;0.98;;;;;;;9.77;78.04;96929.84;5052558;28;20205;-76
2023/12/11 08:37:06;;;;;;;1.40;0.80;;;;;;;9.84;77.46;96908.16;5105005;28;20200;-76
2023/12/11 08:39:33;;;;;;;1.33;0.85;;;;;;;9.89;77.50;96908.31;5088322;28;20204;-76
2023/12/11 08:41:59;;;;;;;1.42;0.80;;;;;;;10.06;76.96;96902.09;5108109;28;20247;-75
2023/12/11 08:44:28;;;;;;;0.88;0.70;;;;;;;9.91;77.65;96909.75;5089670;28;20240;-76
2023/12/11 08:46:56;;;;;;;1.35;0.95;;;;;;;9.94;77.55;96908.47;5087397;28;20257;-75
2023/12/11 08:49:23;;;;;;;1.73;1.10;;;;;;;10.00;77.39;96919.22;5102619;28;20217;-75
2023/12/11 08:51:50;;;;;;;1.55;0.90;;;;;;;9.97;76.96;96929.63;5086778;28;20283;-75
2023/12/11 08:54:18;;;;;;;1.70;0.80;;;;;;;10.41;74.98;96921.19;5083010;28;20207;-76
2023/12/11 08:56:45;;;;;;;1.10;0.80;;;;;;;10.46;74.57;96912.41;5087411;28;20207;-76
2023/12/11 08:59:12;;;;;;;1.80;0.90;;;;;;;10.58;73.91;96905.16;5093286;28;20203;-75
2023/12/11 09:01:40;;;;;;;1.50;0.80;;;;;;;10.60;73.67;96927.41;5093476;28;20246;-76
2023/12/11 09:04:07;;;;;;;1.77;0.80;;;;;;;11.01;72.57;96913.03;5092585;28;20261;-76
2023/12/11 09:06:33;;;;;;;1.63;0.90;;;;;;;11.16;71.39;96955.91;5093189;28;20264;-76
2023/12/11 09:09:00;;;;;;;2.63;0.90;;;;;;;11.11;71.40;96926.00;5090846;28;20203;-76
2023/12/11 09:11:29;;;;;;;0.80;0.80;;;;;;;10.81;72.07;96931.47;5094374;28;20669;-76
2023/12/11 09:14:01;;;;;;;1.88;1.00;;;;;;;10.84;72.06;96939.13;5089823;28;20208;-76
2023/12/11 09:16:28;;;;;;;1.67;1.15;;;;;;;10.89;71.75;96924.91;5120877;27;20235;-76
2023/12/11 09:18:56;;;;;;;2.67;1.20;;;;;;;10.73;72.04;96932.59;5086289;28;20196;-76
2023/12/11 09:21:23;;;;;;;1.88;1.10;;;;;;;10.69;71.92;96923.31;5087354;28;20223;-76
2023/12/11 09:23:50;;;;;;;3.17;1.20;;;;;;;10.73;72.00;96921.78;5104453;28;20298;-76
2023/12/11 09:26:17;;;;;;;3.20;1.30;;;;;;;10.71;72.20;96925.78;5084552;28;20298;-75
2023/12/11 09:28:43;;;;;;;2.65;1.23;;;;;;;10.74;71.74;96939.66;5100059;28;20195;-76
2023/12/11 09:31:10;;;;;;;2.88;1.60;;;;;;;10.71;71.83;96948.28;5048658;28;20196;-76
2023/12/11 09:33:40;;;;;;;2.60;1.30;;;;;;;10.62;72.31;96944.22;5070234;28;20736;-76
2023/12/11 09:36:10;;;;;;;2.72;1.45;;;;;;;10.72;71.95;96954.50;5049727;28;20211;-76
2023/12/11 09:38:37;;;;;;;3.33;1.75;;;;;;;10.60;72.11;96951.75;5123756;27;20315;-76
2023/12/11 09:41:07;;;;;;;2.00;1.50;;;;;;;10.67;71.81;96957.06;5091938;28;20632;-76
2023/12/11 09:43:34;;;;;;;1.90;1.40;;;;;;;10.65;71.81;96949.19;5109499;28;20231;-76
2023/12/11 09:46:02;;;;;;;2.97;1.13;;;;;;;10.69;71.13;96961.22;5093728;28;20200;-76
2023/12/11 09:48:29;;;;;;;6.25;1.67;;;;;;;10.66;71.62;96953.53;5075138;28;20194;-76
2023/12/11 09:50:56;;;;;;;3.40;1.30;;;;;;;10.78;71.24;96946.28;5108145;28;20200;-76
2023/12/11 09:53:26;;;;;;;3.60;0.90;;;;;;;10.84;70.80;96957.25;5110190;28;20291;-76
2023/12/11 09:55:53;;;;;;;2.38;1.25;;;;;;;10.84;70.82;96951.81;5105324;28;20278;-76
2023/12/11 09:58:23;;;;;;;1.45;0.90;;;;;;;11.03;70.44;96935.31;5089200;28;20279;-75
2023/12/11 10:00:50;;;;;;;1.70;0.90;;;;;;;11.89;67.29;96928.41;5083622;28;20226;-76
2023/12/11 10:03:17;;;;;;;3.28;1.00;;;;;;;12.49;65.58;96925.31;5087314;28;20633;-77
2023/12/11 10:05:46;;;;;;;2.70;1.30;;;;;;;12.64;64.47;96922.91;5120908;27;20196;-77
2023/12/11 10:08:16;;;;;;;2.30;0.97;;;;;;;12.84;63.81;96936.00;5072642;28;20630;-77
2023/12/11 10:10:44;;;;;;;1.52;1.05;;;;;;;12.69;64.40;96933.81;5089315;28;20628;-77
2023/12/11 10:13:11;;;;;;;1.77;1.10;;;;;;;12.32;65.37;96943.41;5107649;28;20203;-76
2023/12/11 10:15:38;;;;;;;2.00;0.80;;;;;;;11.93;66.17;96945.84;5084786;28;20718;-76
2023/12/11 10:18:05;;;;;;;2.95;1.10;;;;;;;11.78;67.01;96937.38;5074203;28;20674;-77
2023/12/11 10:20:33;;;;;;;4.83;1.07;;;;;;;11.63;67.18;96937.00;5091564;28;20215;-76
2023/12/11 10:23:00;;;;;;;1.60;0.80;;;;;;;11.90;66.19;96945.50;5086109;28;20660;-77
2023/12/11 10:25:27;;;;;;;1.65;0.90;;;;;;;12.34;64.85;96941.28;5071564;28;20245;-77
2023/12/11 10:28:09;;;;;;;2.63;0.90;;;;;;;12.43;64.57;96931.69;5071015;28;20201;-76
2023/12/11 10:30:49;;;;;;;2.20;0.90;;;;;;;11.95;65.07;96937.47;5091460;28;20640;-77
2023/12/11 10:33:16;;;;;;;1.53;0.80;;;;;;;12.12;65.34;96935.66;5107776;28;20684;-77
2023/12/11 10:35:43;;;;;;;1.30;0.87;;;;;;;12.06;65.24;96929.31;5126237;27;20681;-76
2023/12/11 10:38:11;;;;;;;1.58;1.10;;;;;;;12.02;65.84;96911.84;5077756;28;20628;-77
2023/12/11 10:40:39;;;;;;;2.15;0.85;;;;;;;12.04;65.78;96922.47;5076326;28;20741;-77
2023/12/11 10:43:08;;;;;;;2.63;1.27;;;;;;;12.08;64.82;96935.31;5070299;28;20207;-76
2023/12/11 10:45:35;;;;;;;4.80;1.40;;;;;;;12.16;64.15;96923.28;5088445;28;20203;-76
2023/12/11 10:48:03;;;;;;;4.07;1.40;;;;;;;12.16;64.16;96927.88;5122090;27;20210;-76
2023/12/11 10:50:30;;;;;;;2.17;1.17;;;;;;;12.14;64.26;96935.44;5104765;28;20617;-76
2023/12/11 10:53:01;;;;;;;2.40;1.03;;;;;;;12.23;63.98;96929.41;5075003;28;20200;-76
2023/12/11 10:55:29;;;;;;;3.25;1.40;;;;;;;12.35;63.91;96935.59;5092503;28;20617;-76
2023/12/11 10:57:58;;;;;;;2.83;1.40;;;;;;;12.27;64.02;96941.44;5093769;28;20200;-76
2023/12/11 11:00:26;;;;;;;4.00;1.60;;;;;;;12.38;63.80;96937.00;5089135;28;20640;-76
2023/12/11 11:02:55;;;;;;;3.60;1.63;;;;;;;12.25;64.01;96942.72;5119633;27;20637;-75
2023/12/11 11:05:23;;;;;;;1.97;1.13;;;;;;;12.24;64.40;96939.19;5066665;28;21182;-75
2023/12/11 11:07:55;;;;;;;4.13;1.27;;;;;;;12.25;64.85;96937.31;5086387;28;20635;-76
2023/12/11 11:10:24;;;;;;;4.13;1.50;;;;;;;12.33;64.39;96939.66;5103468;28;20670;-76
2023/12/11 11:12:55;;;;;;;3.20;1.10;;;;;;;12.28;64.33;96931.41;5087052;28;20695;-77
2023/12/11 11:15:22;;;;;;;3.70;1.73;;;;;;;12.21;64.52;96941.56;5089642;28;20214;-77
2023/12/11 11:18:10;;;;;;;4.13;1.10;;;;;;;12.11;64.59;96936.72;5085807;28;20197;-76
2023/12/11 11:20:38;;;;;;;2.35;1.40;;;;;;;12.09;64.60;96933.44;5086988;28;20256;-76
2023/12/11 11:23:26;;;;;;;3.88;1.63;;;;;;;11.97;64.30;96936.19;5099247;28;20214;-75
2023/12/11 11:25:53;;;;;;;3.38;1.20;;;;;;;12.20;63.84;96940.72;5075651;28;20242;-77
2023/12/11 11:28:40;;;;;;;4.05;1.40;;;;;;;12.21;63.36;96936.13;5077143;28;20287;-76
2023/12/11 11:31:07;;;;;;;4.38;1.30;;;;;;;12.24;62.80;96930.22;5080630;28;20283;-76
2023/12/11 11:33:49;;;;;;;4.93;1.50;;;;;;;12.41;61.98;96934.63;5082705;28;20202;-77
2023/12/11 11:36:17;;;;;;;3.80;1.08;;;;;;;12.43;60.70;96939.81;5107144;27;20629;-76
2023/12/11 11:38:55;;;;;;;3.87;1.50;;;;;;;12.35;60.53;96943.75;5076194;28;20196;-76
2023/12/11 11:41:26;;;;;;;4.00;1.30;;;;;;;12.37;61.46;96941.59;5076461;28;20677;-77